Time;durP1;ratioP1;P1;durP2;ratioP2;P2;SDS_P1;SDS_P2;PMS_P1;PMS_P2;Temp;Humidity;BMP_temperature;BMP_pressure;BME280_temperature;BME280_humidity;BME280_pressure;Samples;Min_cycle;Max_cycle;Signal;HPM_P1;HPM_P2
2023/07/03 00:02:17;;;;;;;11.43;10.20;;;;;;;;;;12919864;22;20811;-86
2023/07/03 00:07:20;;;;;;;11.60;10.40;;;;;;;;;;12921446;22;20434;-86
2023/07/03 00:12:23;;;;;;;12.90;11.30;;;;;;;;;;12921611;23;20688;-87
2023/07/03 00:17:25;;;;;;;12.98;11.57;;;;;;;;;;12921666;22;20360;-87
2023/07/03 00:22:29;;;;;;;13.50;12.07;;;;;;;;;;12942226;23;20372;-87
2023/07/03 00:27:31;;;;;;;14.45;12.05;;;;;;;;;;12920580;22;20380;-87
2023/07/03 00:32:34;;;;;;;14.97;12.67;;;;;;;;;;12920419;22;20689;-86
2023/07/03 00:37:38;;;;;;;14.77;12.18;;;;;;;;;;12920436;22;20372;-86
2023/07/03 00:42:40;;;;;;;15.93;13.03;;;;;;;;;;12921159;22;20372;-86
2023/07/03 00:47:42;;;;;;;13.90;12.40;;;;;;;;;;12919956;22;20919;-87
2023/07/03 00:52:51;;;;;;;15.80;12.70;;;;;;;;;;12919788;22;20426;-87
2023/07/03 00:57:54;;;;;;;14.98;12.80;;;;;;;;;;12918227;22;20365;-86
2023/07/03 01:03:02;;;;;;;14.27;12.15;;;;;;;;;;12941143;23;20372;-86
2023/07/03 01:08:07;;;;;;;13.73;11.68;;;;;;;;;;12919828;22;20361;-87
2023/07/03 01:13:14;;;;;;;13.07;11.68;;;;;;;;;;12919572;23;20357;-86
2023/07/03 01:18:17;;;;;;;12.90;11.18;;;;;;;;;;12920472;22;20426;-87
2023/07/03 01:23:30;;;;;;;12.70;11.18;;;;;;;;;;12920258;22;20905;-86
2023/07/03 01:28:35;;;;;;;12.98;11.57;;;;;;;;;;12920907;22;20369;-86
2023/07/03 01:33:40;;;;;;;13.13;11.30;;;;;;;;;;12920525;22;20870;-86
2023/07/03 01:38:44;;;;;;;12.80;11.25;;;;;;;;;;12919669;22;20365;-86
2023/07/03 01:43:48;;;;;;;14.83;12.37;;;;;;;;;;12982780;22;20379;-86
2023/07/03 01:48:50;;;;;;;14.27;11.50;;;;;;;;;;13004612;22;20366;-87
2023/07/03 01:54:04;;;;;;;14.75;12.50;;;;;;;;;;12982265;22;20834;-86
2023/07/03 01:59:11;;;;;;;15.82;13.23;;;;;;;;;;12982165;22;20430;-86
2023/07/03 02:04:20;;;;;;;16.10;13.10;;;;;;;;;;12983086;22;20448;-85
2023/07/03 02:09:22;;;;;;;17.13;13.77;;;;;;;;;;12983570;22;20660;-87
2023/07/03 02:14:26;;;;;;;18.23;14.55;;;;;;;;;;12981426;22;20358;-87
2023/07/03 02:19:29;;;;;;;19.30;14.45;;;;;;;;;;12982747;22;20413;-87
2023/07/03 02:24:31;;;;;;;23.30;16.57;;;;;;;;;;12983596;22;20479;-87
2023/07/03 02:29:35;;;;;;;18.70;15.20;;;;;;;;;;12982651;22;20363;-87
2023/07/03 02:34:37;;;;;;;21.95;17.10;;;;;;;;;;12982147;22;20440;-87
2023/07/03 02:39:39;;;;;;;21.00;16.57;;;;;;;;;;12970649;22;20411;-86
2023/07/03 02:44:43;;;;;;;18.77;15.40;;;;;;;;;;12919271;22;20373;-87
2023/07/03 02:49:45;;;;;;;22.98;17.08;;;;;;;;;;12917876;22;20828;-87
2023/07/03 02:54:48;;;;;;;25.70;18.43;;;;;;;;;;12918905;22;20438;-87
2023/07/03 02:59:52;;;;;;;24.33;18.80;;;;;;;;;;12918663;22;20418;-86
2023/07/03 03:04:54;;;;;;;22.45;17.55;;;;;;;;;;12919375;22;20384;-86
2023/07/03 03:09:56;;;;;;;24.25;18.33;;;;;;;;;;12940074;23;20705;-87
2023/07/03 03:15:00;;;;;;;24.20;18.00;;;;;;;;;;12940668;23;20399;-87
2023/07/03 03:20:04;;;;;;;23.42;17.60;;;;;;;;;;12919728;22;20446;-86
2023/07/03 03:25:07;;;;;;;22.98;16.90;;;;;;;;;;12919312;22;20434;-86
2023/07/03 03:30:11;;;;;;;20.53;16.50;;;;;;;;;;12922525;22;20394;-86
2023/07/03 03:35:14;;;;;;;20.55;15.75;;;;;;;;;;12921825;22;20364;-86
2023/07/03 03:40:16;;;;;;;20.05;15.48;;;;;;;;;;12921729;22;20372;-86
2023/07/03 03:45:21;;;;;;;20.73;15.43;;;;;;;;;;12923079;22;20423;-87
2023/07/03 03:50:23;;;;;;;18.27;14.23;;;;;;;;;;12922873;22;20373;-87
2023/07/03 03:55:25;;;;;;;19.73;14.20;;;;;;;;;;12922833;22;20365;-86
2023/07/03 04:00:29;;;;;;;18.75;14.30;;;;;;;;;;12921246;22;20360;-87
2023/07/03 04:05:31;;;;;;;21.08;14.77;;;;;;;;;;12923276;22;20867;-87
2023/07/03 04:10:34;;;;;;;20.00;15.15;;;;;;;;;;12922583;22;20373;-87
2023/07/03 04:15:51;;;;;;;19.53;15.13;;;;;;;;;;12922316;22;20365;-86
2023/07/03 04:20:53;;;;;;;19.13;14.77;;;;;;;;;;12922562;22;20442;-86
2023/07/03 04:25:56;;;;;;;19.35;14.38;;;;;;;;;;12920783;22;20420;-87
2023/07/03 04:31:00;;;;;;;19.95;14.73;;;;;;;;;;12918933;22;20423;-87
2023/07/03 04:36:02;;;;;;;15.82;13.05;;;;;;;;;;12919315;22;20592;-87
2023/07/03 04:41:04;;;;;;;16.33;12.80;;;;;;;;;;12919862;22;20365;-88
2023/07/03 04:46:08;;;;;;;17.55;12.75;;;;;;;;;;12920188;22;20761;-87
2023/07/03 04:51:10;;;;;;;16.98;12.55;;;;;;;;;;12919796;22;20411;-87
2023/07/03 04:56:13;;;;;;;15.32;11.68;;;;;;;;;;12920435;22;20434;-88
2023/07/03 05:01:16;;;;;;;15.77;11.23;;;;;;;;;;12920537;22;20407;-88
2023/07/03 05:06:19;;;;;;;14.53;10.50;;;;;;;;;;12919953;23;20844;-87
2023/07/03 05:11:21;;;;;;;14.68;10.30;;;;;;;;;;12939887;23;20733;-85
2023/07/03 05:16:25;;;;;;;12.13;9.52;;;;;;;;;;12917857;22;20438;-86
2023/07/03 05:21:27;;;;;;;11.27;9.00;;;;;;;;;;12918944;22;20365;-86
2023/07/03 05:26:29;;;;;;;13.10;9.25;;;;;;;;;;12918232;22;20453;-86
2023/07/03 05:31:33;;;;;;;10.60;8.63;;;;;;;;;;12918753;22;20364;-87
2023/07/03 05:36:36;;;;;;;10.43;7.73;;;;;;;;;;12919131;22;20446;-88
2023/07/03 05:41:38;;;;;;;10.70;8.20;;;;;;;;;;13012624;22;20446;-87
2023/07/03 05:46:41;;;;;;;11.10;8.32;;;;;;;;;;13067513;22;20403;-86
2023/07/03 05:51:44;;;;;;;10.10;8.35;;;;;;;;;;13043295;22;20365;-87
2023/07/03 05:56:57;;;;;;;12.18;8.68;;;;;;;;;;13061618;22;20398;-88
2023/07/03 06:02:03;;;;;;;10.13;7.88;;;;;;;;;;13042646;22;20426;-86
2023/07/03 06:07:07;;;;;;;9.43;7.85;;;;;;;;;;13043020;22;20840;-87
2023/07/03 06:12:10;;;;;;;11.27;7.90;;;;;;;;;;13043374;22;20369;-88
2023/07/03 06:17:13;;;;;;;12.13;8.23;;;;;;;;;;13043165;22;20353;-86
2023/07/03 06:22:15;;;;;;;10.40;8.80;;;;;;;;;;13042328;22;20369;-87
2023/07/03 06:27:18;;;;;;;9.87;7.67;;;;;;;;;;13042543;22;20743;-87
2023/07/03 06:32:22;;;;;;;10.25;8.18;;;;;;;;;;13043421;22;20361;-87
2023/07/03 06:37:24;;;;;;;10.38;8.15;;;;;;;;;;13043416;22;20829;-85
2023/07/03 06:42:27;;;;;;;9.93;7.78;;;;;;;;;;13042312;22;20361;-84
2023/07/03 06:47:30;;;;;;;8.63;7.27;;;;;;;;;;13042021;22;20381;-85
2023/07/03 06:52:35;;;;;;;8.93;7.00;;;;;;;;;;13041762;22;20365;-85
2023/07/03 06:57:37;;;;;;;9.60;6.90;;;;;;;;;;13042183;22;20358;-83
2023/07/03 07:02:41;;;;;;;9.15;6.38;;;;;;;;;;13046544;22;20361;-84
2023/07/03 07:07:45;;;;;;;8.47;6.70;;;;;;;;;;13045822;22;20381;-84
2023/07/03 07:12:47;;;;;;;10.37;6.23;;;;;;;;;;13046769;22;20357;-83
2023/07/03 07:17:50;;;;;;;7.50;6.03;;;;;;;;;;13047133;22;20384;-86
2023/07/03 07:22:53;;;;;;;7.90;5.93;;;;;;;;;;13069006;22;20828;-86
2023/07/03 07:27:55;;;;;;;10.65;6.70;;;;;;;;;;13046801;22;20380;-84
2023/07/03 07:32:59;;;;;;;9.57;7.38;;;;;;;;;;13047437;22;20836;-86
2023/07/03 07:38:01;;;;;;;10.15;6.97;;;;;;;;;;13045977;22;20361;-86
2023/07/03 07:43:04;;;;;;;10.15;6.25;;;;;;;;;;13045820;22;20358;-85
2023/07/03 07:48:08;;;;;;;9.35;6.80;;;;;;;;;;13047293;22;20431;-85
2023/07/03 07:53:10;;;;;;;8.98;6.43;;;;;;;;;;13067994;22;20748;-85
2023/07/03 07:58:13;;;;;;;8.33;6.60;;;;;;;;;;13046147;22;20361;-85
2023/07/03 08:03:17;;;;;;;9.07;6.13;;;;;;;;;;13046380;22;20365;-86
2023/07/03 08:08:19;;;;;;;7.80;5.30;;;;;;;;;;13045661;22;20906;-87
2023/07/03 08:13:22;;;;;;;8.40;5.68;;;;;;;;;;13067890;22;20357;-86
2023/07/03 08:18:26;;;;;;;6.82;5.50;;;;;;;;;;13046081;22;20430;-87
2023/07/03 08:23:31;;;;;;;9.80;6.70;;;;;;;;;;13046334;22;20365;-86
2023/07/03 08:28:33;;;;;;;8.20;6.50;;;;;;;;;;13045049;22;20380;-86
2023/07/03 08:33:37;;;;;;;8.70;6.60;;;;;;;;;;13046132;22;20361;-86
2023/07/03 08:38:39;;;;;;;9.60;6.60;;;;;;;;;;13044728;22;20377;-86
2023/07/03 08:43:43;;;;;;;9.57;6.90;;;;;;;;;;13045661;22;20387;-86
2023/07/03 08:48:51;;;;;;;8.30;6.75;;;;;;;;;;13043717;22;20380;-86
2023/07/03 08:53:55;;;;;;;10.30;7.00;;;;;;;;;;13063352;22;20360;-86
2023/07/03 08:58:58;;;;;;;8.20;6.00;;;;;;;;;;13041511;22;20368;-88
2023/07/03 09:04:13;;;;;;;7.00;4.90;;;;;;;;;;13042680;22;20772;-86
2023/07/03 09:09:23;;;;;;;5.03;4.10;;;;;;;;;;13056378;22;20767;-86
2023/07/03 09:14:31;;;;;;;8.83;5.17;;;;;;;;;;13060208;22;20361;-85
2023/07/03 09:19:37;;;;;;;9.07;5.27;;;;;;;;;;13035983;22;20395;-87
2023/07/03 09:24:42;;;;;;;6.53;4.83;;;;;;;;;;13039391;22;20361;-85
2023/07/03 09:29:46;;;;;;;7.20;5.13;;;;;;;;;;13035695;22;20701;-86
2023/07/03 09:35:07;;;;;;;6.87;5.30;;;;;;;;;;13037913;22;20435;-87
2023/07/03 09:40:15;;;;;;;8.38;5.85;;;;;;;;;;13040295;22;20373;-86
2023/07/03 09:45:19;;;;;;;8.80;5.53;;;;;;;;;;13040687;22;20369;-86
2023/07/03 09:50:25;;;;;;;8.35;5.85;;;;;;;;;;13039626;22;20373;-86
2023/07/03 09:55:28;;;;;;;8.97;5.70;;;;;;;;;;13061966;22;20368;-87
2023/07/03 10:00:30;;;;;;;7.85;5.15;;;;;;;;;;13039984;22;20357;-88
2023/07/03 10:05:35;;;;;;;6.32;4.63;;;;;;;;;;13062987;22;20361;-87
2023/07/03 10:10:37;;;;;;;5.80;4.40;;;;;;;;;;13062485;22;20465;-86
2023/07/03 10:15:42;;;;;;;4.93;3.97;;;;;;;;;;13039019;22;20411;-87
2023/07/03 10:20:49;;;;;;;5.20;3.83;;;;;;;;;;13038504;22;20361;-87
2023/07/03 10:25:56;;;;;;;5.03;4.00;;;;;;;;;;13038059;22;20368;-87
2023/07/03 10:31:03;;;;;;;5.03;4.07;;;;;;;;;;13036291;22;20373;-86
2023/07/03 10:36:12;;;;;;;5.13;3.77;;;;;;;;;;13047898;22;20372;-87
2023/07/03 10:41:20;;;;;;;5.05;4.00;;;;;;;;;;13033897;22;20709;-86
2023/07/03 10:46:29;;;;;;;4.90;3.80;;;;;;;;;;13039040;22;21003;-87
2023/07/03 10:51:43;;;;;;;5.28;3.85;;;;;;;;;;13051670;22;20357;-86
2023/07/03 10:56:49;;;;;;;3.97;3.30;;;;;;;;;;13055485;22;20361;-86
2023/07/03 11:02:02;;;;;;;4.05;3.33;;;;;;;;;;13036362;22;20667;-86
2023/07/03 11:07:12;;;;;;;4.70;3.28;;;;;;;;;;13040701;22;20442;-87
2023/07/03 11:12:22;;;;;;;4.93;3.53;;;;;;;;;;13035733;22;20395;-86
2023/07/03 11:17:33;;;;;;;4.78;3.50;;;;;;;;;;13031704;22;20865;-87
2023/07/03 11:22:47;;;;;;;5.28;3.90;;;;;;;;;;13039279;22;20357;-88
2023/07/03 11:27:57;;;;;;;3.75;3.30;;;;;;;;;;13037949;22;20438;-87
2023/07/03 11:33:02;;;;;;;3.72;3.00;;;;;;;;;;13062856;22;20416;-87
2023/07/03 11:38:09;;;;;;;4.13;3.08;;;;;;;;;;13061235;22;20361;-87
2023/07/03 11:43:24;;;;;;;4.72;3.38;;;;;;;;;;13038682;22;20434;-87
2023/07/03 11:48:28;;;;;;;4.17;2.97;;;;;;;;;;13038034;22;20407;-86
2023/07/03 11:53:35;;;;;;;3.55;3.03;;;;;;;;;;13059789;22;20369;-88
2023/07/03 11:58:38;;;;;;;4.27;3.20;;;;;;;;;;13039375;22;20813;-87
2023/07/03 12:03:51;;;;;;;4.25;3.22;;;;;;;;;;13032431;22;20373;-87
2023/07/03 12:09:27;;;;;;;6.40;3.77;;;;;;;;;;13033287;22;20380;-86
2023/07/03 12:15:05;;;;;;;4.83;3.37;;;;;;;;;;13037747;22;20365;-87
2023/07/03 12:20:10;;;;;;;4.03;3.03;;;;;;;;;;13035638;22;20365;-86
2023/07/03 12:25:20;;;;;;;3.93;3.10;;;;;;;;;;13058800;22;20709;-86
2023/07/03 12:30:25;;;;;;;4.00;3.40;;;;;;;;;;13038815;22;20380;-87
2023/07/03 12:35:29;;;;;;;3.92;3.40;;;;;;;;;;13037505;22;20446;-89
2023/07/03 12:40:33;;;;;;;6.87;3.30;;;;;;;;;;13034390;22;20369;-87
2023/07/03 12:45:35;;;;;;;3.90;3.50;;;;;;;;;;13035762;22;20395;-87
2023/07/03 12:50:47;;;;;;;5.00;3.42;;;;;;;;;;13037946;22;20415;-87
2023/07/03 12:55:54;;;;;;;4.35;3.38;;;;;;;;;;13037910;22;20898;-87
2023/07/03 13:01:01;;;;;;;5.80;3.37;;;;;;;;;;13063311;22;20365;-88
2023/07/03 13:06:03;;;;;;;5.50;3.57;;;;;;;;;;13041886;22;20361;-86
2023/07/03 13:11:07;;;;;;;4.27;3.17;;;;;;;;;;13062734;22;20369;-86
2023/07/03 13:16:20;;;;;;;4.87;3.30;;;;;;;;;;13042595;22;20369;-86
2023/07/03 13:21:22;;;;;;;4.70;3.33;;;;;;;;;;13041521;22;20426;-86
2023/07/03 13:26:26;;;;;;;4.93;3.38;;;;;;;;;;13038229;22;20430;-87
2023/07/03 13:31:33;;;;;;;4.43;3.50;;;;;;;;;;13034853;22;20460;-89
2023/07/03 13:36:38;;;;;;;3.60;3.05;;;;;;;;;;13059725;22;20360;-87
2023/07/03 13:41:43;;;;;;;4.93;3.53;;;;;;;;;;13039041;22;20419;-88
2023/07/03 13:46:48;;;;;;;4.25;3.40;;;;;;;;;;13041283;22;20365;-86
2023/07/03 13:51:51;;;;;;;4.68;4.00;;;;;;;;;;13042788;22;20365;-87
2023/07/03 13:56:55;;;;;;;4.28;3.88;;;;;;;;;;13042199;22;20395;-88
2023/07/03 14:01:57;;;;;;;4.90;3.50;;;;;;;;;;13042717;22;20422;-87
2023/07/03 14:06:59;;;;;;;4.95;3.83;;;;;;;;;;13042781;22;20361;-88
2023/07/03 14:12:03;;;;;;;5.57;3.90;;;;;;;;;;13041237;22;20360;-87
2023/07/03 14:17:06;;;;;;;5.38;3.67;;;;;;;;;;13039834;22;20372;-84
2023/07/03 14:22:08;;;;;;;4.35;3.50;;;;;;;;;;13030436;22;20360;-85
2023/07/03 14:27:12;;;;;;;4.57;3.50;;;;;;;;;;13036419;22;20377;-85
2023/07/03 14:32:14;;;;;;;4.00;3.60;;;;;;;;;;13057721;22;20369;-85
2023/07/03 14:37:16;;;;;;;5.93;3.90;;;;;;;;;;13036586;22;20360;-84
2023/07/03 14:42:20;;;;;;;5.00;3.78;;;;;;;;;;13035252;22;20423;-85
2023/07/03 14:47:23;;;;;;;4.37;3.60;;;;;;;;;;13038965;22;20434;-85
2023/07/03 14:52:34;;;;;;;4.95;4.05;;;;;;;;;;13057399;22;20353;-85
2023/07/03 14:57:38;;;;;;;6.28;3.90;;;;;;;;;;13035532;22;20423;-86
2023/07/03 15:02:47;;;;;;;5.50;3.83;;;;;;;;;;13035266;22;20433;-85
2023/07/03 15:07:50;;;;;;;4.55;3.80;;;;;;;;;;13036575;22;20442;-84
2023/07/03 15:12:54;;;;;;;4.60;4.03;;;;;;;;;;13038701;22;20439;-84
2023/07/03 15:17:57;;;;;;;5.93;4.00;;;;;;;;;;13035219;22;20399;-85
2023/07/03 15:22:59;;;;;;;5.70;4.13;;;;;;;;;;13042039;22;20376;-86
2023/07/03 15:28:03;;;;;;;4.60;3.65;;;;;;;;;;13060658;22;20376;-86
2023/07/03 15:33:05;;;;;;;6.90;3.73;;;;;;;;;;13064426;22;20365;-86
2023/07/03 15:38:08;;;;;;;5.63;3.78;;;;;;;;;;13062778;22;20721;-86
2023/07/03 15:43:12;;;;;;;5.80;3.65;;;;;;;;;;13036817;22;20365;-86
2023/07/03 15:48:14;;;;;;;4.00;3.50;;;;;;;;;;13035890;22;20368;-86
2023/07/03 15:53:16;;;;;;;4.43;3.45;;;;;;;;;;13038844;22;20825;-87
2023/07/03 15:58:20;;;;;;;4.53;3.50;;;;;;;;;;13040549;22;20410;-87
2023/07/03 16:03:22;;;;;;;4.30;3.37;;;;;;;;;;13036629;22;20403;-86
2023/07/03 16:08:25;;;;;;;4.63;3.50;;;;;;;;;;13032312;22;20384;-85
2023/07/03 16:13:30;;;;;;;5.03;3.60;;;;;;;;;;13030165;22;20997;-85
2023/07/03 16:18:33;;;;;;;4.68;3.13;;;;;;;;;;13034560;22;20442;-86
2023/07/03 16:23:35;;;;;;;4.25;3.22;;;;;;;;;;13038392;22;20372;-86
2023/07/03 16:28:40;;;;;;;5.88;3.20;;;;;;;;;;13032844;22;20373;-86
2023/07/03 16:33:44;;;;;;;4.68;3.10;;;;;;;;;;13033707;22;20381;-85
2023/07/03 16:38:48;;;;;;;4.23;3.20;;;;;;;;;;13032253;22;20373;-86
2023/07/03 16:43:55;;;;;;;4.60;3.20;;;;;;;;;;13049589;22;20430;-85
2023/07/03 16:48:58;;;;;;;5.10;3.28;;;;;;;;;;13033121;22;20860;-78
2023/07/03 16:54:01;;;;;;;4.47;3.47;;;;;;;;;;13050056;22;20848;-86
2023/07/03 16:59:05;;;;;;;4.03;3.40;;;;;;;;;;13033461;22;20377;-86
2023/07/03 17:04:08;;;;;;;3.67;3.10;;;;;;;;;;13030973;22;21060;-87
2023/07/03 17:09:10;;;;;;;4.50;3.38;;;;;;;;;;13030421;22;20380;-87
2023/07/03 17:14:14;;;;;;;4.00;3.25;;;;;;;;;;13032468;22;20782;-86
2023/07/03 17:19:16;;;;;;;3.60;3.10;;;;;;;;;;13033121;22;20498;-86
2023/07/03 17:24:19;;;;;;;3.53;3.20;;;;;;;;;;13028176;22;20369;-86
2023/07/03 17:29:23;;;;;;;4.33;2.93;;;;;;;;;;13034072;22;20377;-87
2023/07/03 17:34:25;;;;;;;3.40;2.80;;;;;;;;;;13030989;22;20381;-86
2023/07/03 17:39:27;;;;;;;3.60;3.00;;;;;;;;;;13026407;22;20533;-86
2023/07/03 17:44:31;;;;;;;4.17;2.63;;;;;;;;;;13050530;22;20377;-86
2023/07/03 17:49:34;;;;;;;3.15;2.70;;;;;;;;;;13052221;22;20840;-86
2023/07/03 17:54:36;;;;;;;3.37;2.83;;;;;;;;;;13030077;22;20430;-87
2023/07/03 17:59:40;;;;;;;3.30;2.70;;;;;;;;;;13033766;22;20361;-85
2023/07/03 18:04:43;;;;;;;4.45;2.72;;;;;;;;;;13033082;22;20437;-86
2023/07/03 18:09:46;;;;;;;3.85;3.00;;;;;;;;;;13031869;22;20803;-86
2023/07/03 18:14:50;;;;;;;3.47;3.00;;;;;;;;;;13030716;22;20373;-86
2023/07/03 18:19:52;;;;;;;3.22;2.80;;;;;;;;;;13037858;22;20436;-86
2023/07/03 18:24:54;;;;;;;4.60;3.03;;;;;;;;;;13032380;22;20435;-86
2023/07/03 18:29:58;;;;;;;3.87;3.00;;;;;;;;;;13030320;22;20380;-85
2023/07/03 18:35:01;;;;;;;3.77;2.90;;;;;;;;;;13031667;22;20376;-86
2023/07/03 18:40:03;;;;;;;3.60;3.03;;;;;;;;;;13031568;22;20437;-84
2023/07/03 18:45:08;;;;;;;4.50;3.07;;;;;;;;;;13032090;22;20365;-87
2023/07/03 18:50:12;;;;;;;4.43;3.43;;;;;;;;;;13027650;22;20377;-85
2023/07/03 18:55:15;;;;;;;6.85;3.70;;;;;;;;;;13022407;22;20728;-84
2023/07/03 19:00:20;;;;;;;4.00;3.20;;;;;;;;;;13025408;22;20437;-83
2023/07/03 19:05:22;;;;;;;4.15;3.20;;;;;;;;;;13030030;22;20441;-85
2023/07/03 19:10:25;;;;;;;4.13;3.28;;;;;;;;;;13027018;22;20385;-84
2023/07/03 19:15:33;;;;;;;4.53;3.42;;;;;;;;;;13027936;22;20432;-85
2023/07/03 19:20:36;;;;;;;4.40;3.40;;;;;;;;;;13030598;22;20372;-85
2023/07/03 19:25:39;;;;;;;4.93;3.65;;;;;;;;;;13037675;22;20373;-84
2023/07/03 19:30:50;;;;;;;4.55;3.70;;;;;;;;;;13029178;22;20466;-84
2023/07/03 19:35:54;;;;;;;6.03;4.10;;;;;;;;;;13029446;22;20975;-86
2023/07/03 19:40:57;;;;;;;5.10;3.63;;;;;;;;;;13027318;22;20426;-85
2023/07/03 19:46:01;;;;;;;5.20;4.10;;;;;;;;;;13030506;22;20377;-86
2023/07/03 19:51:04;;;;;;;6.00;4.37;;;;;;;;;;13032125;22;20506;-85
2023/07/03 19:56:13;;;;;;;5.38;4.30;;;;;;;;;;13028627;22;20430;-85
2023/07/03 20:01:18;;;;;;;6.22;4.15;;;;;;;;;;13027675;22;20447;-84
2023/07/03 20:06:22;;;;;;;5.43;4.10;;;;;;;;;;13027367;22;20780;-84
2023/07/03 20:11:25;;;;;;;4.90;3.90;;;;;;;;;;13023480;22;20385;-84
2023/07/03 20:16:29;;;;;;;4.88;3.47;;;;;;;;;;13028283;22;20372;-83
2023/07/03 20:21:32;;;;;;;6.05;3.88;;;;;;;;;;13027422;22;20407;-85
2023/07/03 20:26:35;;;;;;;4.72;4.00;;;;;;;;;;13028068;22;20373;-84
2023/07/03 20:31:38;;;;;;;4.65;3.70;;;;;;;;;;13028740;22;20446;-84
2023/07/03 20:36:41;;;;;;;5.32;3.80;;;;;;;;;;13030069;22;20441;-84
2023/07/03 20:41:43;;;;;;;4.25;3.20;;;;;;;;;;13022736;22;21135;-84
2023/07/03 20:46:47;;;;;;;4.70;3.40;;;;;;;;;;13030964;22;20369;-85
2023/07/03 20:51:53;;;;;;;4.93;3.57;;;;;;;;;;13028205;22;20381;-85
2023/07/03 20:56:55;;;;;;;4.78;3.55;;;;;;;;;;13032389;22;20377;-84
2023/07/03 21:01:59;;;;;;;4.03;3.20;;;;;;;;;;13034359;22;20376;-84
2023/07/03 21:07:02;;;;;;;4.17;3.70;;;;;;;;;;13029017;22;20380;-84
2023/07/03 21:12:05;;;;;;;3.83;3.07;;;;;;;;;;13028661;22;20461;-84
2023/07/03 21:17:09;;;;;;;4.20;3.13;;;;;;;;;;13027106;22;20449;-84
2023/07/03 21:22:11;;;;;;;4.75;3.58;;;;;;;;;;13029866;22;20449;-85
2023/07/03 21:27:13;;;;;;;5.88;3.65;;;;;;;;;;13027632;22;20373;-85
2023/07/03 21:32:17;;;;;;;4.40;3.33;;;;;;;;;;13031376;22;20381;-87
2023/07/03 21:37:20;;;;;;;4.00;1.08;;;;;;;;;;13054061;22;20426;-85
2023/07/03 21:42:22;;;;;;;2.63;0.50;;;;;;;;;;13030634;22;20407;-86
2023/07/03 21:47:27;;;;;;;0.88;0.80;;;;;;;;;;13027198;22;20860;-86
2023/07/03 21:52:30;;;;;;;1.60;1.10;;;;;;;;;;13053641;22;20377;-86
2023/07/03 21:57:32;;;;;;;3.17;1.23;;;;;;;;;;13034423;22;20361;-86
2023/07/03 22:02:36;;;;;;;4.65;1.30;;;;;;;;;;13035203;22;20369;-85
2023/07/03 22:07:38;;;;;;;3.93;1.03;;;;;;;;;;13037244;22;20357;-85
2023/07/03 22:12:41;;;;;;;1.95;0.70;;;;;;;;;;13038282;22;20438;-86
2023/07/03 22:17:44;;;;;;;1.90;0.80;;;;;;;;;;13035504;22;20364;-84
2023/07/03 22:22:47;;;;;;;2.77;0.73;;;;;;;;;;13059929;22;20373;-85
2023/07/03 22:27:51;;;;;;;1.00;0.43;;;;;;;;;;13037785;22;20800;-85
2023/07/03 22:32:55;;;;;;;4.13;0.60;;;;;;;;;;13040622;22;20709;-85
2023/07/03 22:37:57;;;;;;;0.80;0.40;;;;;;;;;;13060901;22;20425;-83
2023/07/03 22:43:00;;;;;;;1.70;0.40;;;;;;;;;;13031497;22;20364;-85
2023/07/03 22:48:04;;;;;;;0.77;0.45;;;;;;;;;;13038346;22;20482;-84
2023/07/03 22:53:06;;;;;;;1.60;0.50;;;;;;;;;;13040005;22;20376;-84
2023/07/03 22:58:09;;;;;;;1.25;0.80;;;;;;;;;;13040033;22;20825;-85
2023/07/03 23:03:14;;;;;;;1.55;0.80;;;;;;;;;;13039354;22;20419;-84
2023/07/03 23:08:17;;;;;;;2.10;0.77;;;;;;;;;;13041136;22;20349;-85
2023/07/03 23:13:20;;;;;;;0.82;0.63;;;;;;;;;;13046088;22;20376;-85
2023/07/03 23:18:24;;;;;;;6.20;0.90;;;;;;;;;;13067731;22;20369;-85
2023/07/03 23:23:29;;;;;;;1.77;0.95;;;;;;;;;;13043871;22;20353;-84
2023/07/03 23:28:34;;;;;;;2.13;0.80;;;;;;;;;;13043134;22;20361;-85
2023/07/03 23:33:38;;;;;;;0.95;0.85;;;;;;;;;;13040160;22;20377;-84
2023/07/03 23:44:18;;;;;;;1.75;0.80;;;;;;;;;;12811008;23;20426;-82
2023/07/03 23:49:23;;;;;;;2.70;1.08;;;;;;;;;;12790332;23;20395;-82
2023/07/03 23:54:26;;;;;;;1.52;0.98;;;;;;;;;;12793758;23;20384;-82
2023/07/03 23:59:30;;;;;;;2.60;1.20;;;;;;;;;;12792155;23;20886;-83
